createdAt,value
2022-12-11T00:00:30.595Z,17.85
2022-12-11T00:02:57.651Z,25.42
2022-12-11T00:05:24.672Z,25.45
2022-12-11T00:07:51.605Z,23.00
2022-12-11T00:10:18.473Z,22.75
2022-12-11T00:12:45.356Z,23.77
2022-12-11T00:15:12.620Z,20.30
2022-12-11T00:17:39.835Z,25.98
2022-12-11T00:20:08.154Z,26.83
2022-12-11T00:22:35.073Z,26.70
2022-12-11T00:25:02.072Z,27.20
2022-12-11T00:27:28.873Z,23.00
2022-12-11T00:29:55.721Z,27.25
2022-12-11T00:32:22.892Z,32.67
2022-12-11T00:34:49.707Z,30.20
2022-12-11T00:37:16.696Z,23.08
2022-12-11T00:39:43.613Z,20.88
2022-12-11T00:42:10.488Z,19.88
2022-12-11T00:44:37.397Z,23.17
2022-12-11T00:47:04.308Z,19.98
2022-12-11T00:49:31.403Z,18.55
2022-12-11T00:51:58.348Z,15.10
2022-12-11T00:54:25.257Z,16.55
2022-12-11T00:56:52.178Z,23.40
2022-12-11T00:59:19.975Z,21.45
2022-12-11T01:01:46.854Z,22.90
2022-12-11T01:04:13.787Z,17.13
2022-12-11T01:06:40.744Z,16.25
2022-12-11T01:09:26.463Z,14.95
2022-12-11T01:11:53.472Z,25.77
2022-12-11T01:14:20.391Z,15.95
2022-12-11T01:16:47.336Z,19.70
2022-12-11T01:19:14.275Z,26.65
2022-12-11T01:21:41.253Z,25.08
2022-12-11T01:24:08.279Z,26.98
2022-12-11T01:26:35.150Z,17.05
2022-12-11T01:29:02.307Z,21.75
2022-12-11T01:31:29.725Z,25.65
2022-12-11T01:33:56.739Z,30.02
2022-12-11T01:36:24.479Z,26.42
2022-12-11T01:38:51.533Z,31.38
2022-12-11T01:41:19.080Z,31.63
2022-12-11T01:44:07.745Z,22.15
2022-12-11T01:46:36.488Z,31.23
2022-12-11T01:49:07.497Z,22.85
2022-12-11T01:51:42.802Z,26.25
2022-12-11T01:54:13.750Z,36.83
2022-12-11T01:56:43.819Z,30.15
2022-12-11T01:59:15.677Z,22.20
2022-12-11T02:02:22.881Z,25.23
2022-12-11T02:04:49.893Z,28.15
2022-12-11T02:07:16.940Z,33.35
2022-12-11T02:09:47.119Z,21.27
2022-12-11T02:12:41.587Z,21.17
2022-12-11T02:15:25.506Z,23.55
2022-12-11T02:18:10.473Z,25.38
2022-12-11T02:20:55.890Z,26.73
2022-12-11T02:23:46.940Z,20.65
2022-12-11T02:26:49.510Z,25.25
2022-12-11T02:29:25.990Z,24.17
2022-12-11T02:32:08.001Z,19.00
2022-12-11T02:34:43.632Z,23.88
2022-12-11T02:37:19.258Z,19.77
2022-12-11T02:39:49.141Z,22.30
2022-12-11T02:42:16.705Z,18.90
2022-12-11T02:44:46.462Z,17.63
2022-12-11T02:47:16.795Z,19.40
2022-12-11T02:49:47.008Z,16.67
2022-12-11T02:52:17.700Z,21.98
2022-12-11T02:54:46.693Z,22.27
2022-12-11T02:57:25.908Z,22.52
2022-12-11T02:59:52.797Z,19.23
2022-12-11T03:02:19.718Z,20.38
2022-12-11T03:04:47.672Z,21.63
2022-12-11T03:07:23.508Z,16.08
2022-12-11T03:09:51.148Z,17.60
2022-12-11T03:12:29.401Z,23.23
2022-12-11T03:14:59.735Z,20.77
2022-12-11T03:17:44.607Z,20.63
2022-12-11T03:20:20.507Z,19.60
2022-12-11T03:22:54.990Z,23.83
2022-12-11T03:25:23.473Z,16.70
2022-12-11T03:27:52.983Z,24.42
2022-12-11T03:30:22.450Z,20.85
2022-12-11T03:32:55.130Z,21.70
2022-12-11T03:35:27.716Z,20.10
2022-12-11T03:37:56.926Z,20.75
2022-12-11T03:40:26.169Z,27.83
2022-12-11T03:42:56.820Z,30.67
2022-12-11T03:45:26.277Z,34.15
2022-12-11T03:47:55.951Z,19.10
2022-12-11T03:50:26.129Z,22.05
2022-12-11T03:52:54.496Z,24.60
2022-12-11T03:55:23.026Z,24.17
2022-12-11T03:57:50.018Z,23.38
2022-12-11T04:00:20.044Z,24.92
2022-12-11T04:03:12.740Z,27.70
2022-12-11T04:05:44.101Z,27.13
2022-12-11T04:08:11.435Z,25.63
2022-12-11T04:10:38.869Z,26.65
2022-12-11T04:13:05.923Z,25.63
2022-12-11T04:15:33.196Z,22.67
2022-12-11T04:18:18.610Z,20.40
2022-12-11T04:21:04.185Z,17.50
2022-12-11T04:23:49.478Z,21.50
2022-12-11T04:26:18.834Z,23.05
2022-12-11T04:28:49.362Z,24.40
2022-12-11T04:31:22.527Z,23.35
2022-12-11T04:33:49.646Z,21.67
2022-12-11T04:36:16.866Z,24.70
2022-12-11T04:38:43.781Z,17.98
2022-12-11T04:41:13.926Z,18.42
2022-12-11T04:43:40.888Z,18.05
2022-12-11T04:46:12.851Z,15.93
2022-12-11T04:51:07.460Z,14.18
2022-12-11T04:53:35.270Z,16.52
2022-12-11T04:56:05.939Z,21.27
2022-12-11T04:58:33.074Z,20.27
2022-12-11T05:00:59.919Z,17.17
2022-12-11T05:03:26.934Z,27.45
2022-12-11T05:05:54.228Z,26.42
2022-12-11T05:08:21.783Z,22.48
2022-12-11T05:11:06.933Z,19.88
2022-12-11T05:13:33.985Z,20.17
2022-12-11T05:16:03.246Z,18.75
2022-12-11T05:18:30.077Z,16.13
2022-12-11T05:21:09.502Z,20.10
2022-12-11T05:23:36.857Z,18.75
2022-12-11T05:26:06.785Z,12.98
2022-12-11T05:28:36.846Z,17.73
2022-12-11T05:31:11.811Z,16.35
2022-12-11T05:33:38.749Z,25.40
2022-12-11T05:36:07.662Z,21.95
2022-12-11T05:38:34.680Z,28.45
2022-12-11T05:41:03.979Z,19.15
2022-12-11T05:43:34.058Z,26.33
2022-12-11T05:46:08.922Z,20.02
2022-12-11T05:48:36.959Z,21.58
2022-12-11T05:51:05.237Z,24.85
2022-12-11T05:53:33.042Z,22.77
2022-12-11T05:56:08.384Z,24.08
2022-12-11T05:58:35.521Z,22.65
2022-12-11T06:01:06.716Z,29.15
2022-12-11T06:03:33.609Z,27.15
2022-12-11T06:06:07.695Z,24.25
2022-12-11T06:08:35.342Z,26.05
2022-12-11T06:11:03.127Z,20.00
2022-12-11T06:13:30.303Z,18.88
2022-12-11T06:16:01.982Z,23.48
2022-12-11T06:18:28.898Z,23.13
2022-12-11T06:20:55.770Z,20.23
2022-12-11T06:23:22.826Z,18.95
2022-12-11T06:25:49.647Z,25.77
2022-12-11T06:28:16.676Z,18.25
2022-12-11T06:30:43.721Z,21.98
2022-12-11T06:33:10.743Z,21.50
2022-12-11T06:36:32.138Z,24.20
2022-12-11T06:38:59.142Z,22.40
2022-12-11T06:41:26.116Z,24.15
2022-12-11T06:43:52.940Z,18.00
2022-12-11T06:46:20.364Z,23.73
2022-12-11T06:48:47.999Z,21.00
2022-12-11T06:51:17.510Z,20.83
2022-12-11T06:53:44.677Z,17.45
2022-12-11T06:56:14.978Z,23.75
2022-12-11T06:58:43.153Z,19.77
2022-12-11T07:01:19.934Z,19.38
2022-12-11T07:03:47.571Z,22.77
2022-12-11T07:06:15.404Z,25.75
2022-12-11T07:08:42.282Z,24.67
2022-12-11T07:11:12.556Z,18.45
2022-12-11T07:13:39.619Z,21.10
2022-12-11T07:16:10.840Z,20.95
2022-12-11T07:18:39.192Z,20.90
2022-12-11T07:21:07.279Z,17.70
2022-12-11T07:23:35.505Z,23.42
2022-12-11T07:26:07.546Z,21.83
2022-12-11T07:28:35.109Z,23.30
2022-12-11T07:31:09.686Z,28.55
2022-12-11T07:33:36.621Z,22.40
2022-12-11T07:36:06.009Z,22.42
2022-12-11T07:38:33.031Z,20.85
2022-12-11T07:41:08.610Z,26.77
2022-12-11T07:43:36.383Z,26.05
2022-12-11T07:46:05.649Z,29.98
2022-12-11T07:48:32.707Z,33.58
2022-12-11T07:51:12.600Z,35.65
2022-12-11T07:53:39.439Z,21.48
2022-12-11T07:56:07.045Z,16.83
2022-12-11T07:58:34.445Z,19.77
2022-12-11T08:01:01.320Z,27.50
2022-12-11T08:03:28.151Z,32.72
2022-12-11T08:05:55.533Z,24.88
2022-12-11T08:08:22.483Z,25.30
2022-12-11T08:10:49.491Z,21.15
2022-12-11T08:13:16.373Z,18.77
2022-12-11T08:15:43.272Z,19.70
2022-12-11T08:18:10.229Z,13.73
2022-12-11T08:20:39.242Z,18.75
2022-12-11T08:23:06.134Z,14.20
2022-12-11T08:25:33.111Z,14.05
2022-12-11T08:27:59.917Z,13.13
2022-12-11T08:30:26.832Z,15.07
2022-12-11T08:32:53.818Z,10.50
2022-12-11T08:35:20.702Z,17.30
2022-12-11T08:37:47.557Z,14.77
2022-12-11T08:40:14.515Z,15.20
2022-12-11T08:42:41.498Z,15.30
2022-12-11T08:45:09.399Z,15.85
2022-12-11T08:47:36.754Z,44.95
2022-12-11T08:50:04.571Z,21.67
2022-12-11T08:52:34.549Z,19.52
2022-12-11T08:55:01.424Z,16.10
2022-12-11T08:57:28.740Z,16.80
2022-12-11T08:59:55.614Z,21.45
2022-12-11T09:02:22.738Z,13.93
2022-12-11T09:04:49.711Z,15.75
2022-12-11T09:07:16.657Z,17.17
2022-12-11T09:09:43.627Z,19.10
2022-12-11T09:12:10.481Z,21.02
2022-12-11T09:14:37.280Z,17.10
2022-12-11T09:17:05.601Z,17.95
2022-12-11T09:19:32.749Z,16.30
2022-12-11T09:21:59.666Z,17.35
2022-12-11T09:24:26.441Z,14.98
2022-12-11T09:26:54.664Z,15.50
2022-12-11T09:29:21.464Z,18.10
2022-12-11T09:31:49.606Z,15.93
2022-12-11T09:34:16.411Z,17.25
2022-12-11T09:36:44.383Z,15.25
2022-12-11T09:39:13.225Z,12.60
2022-12-11T09:41:53.145Z,19.13
2022-12-11T09:44:31.570Z,18.92
2022-12-11T09:46:59.615Z,19.48
2022-12-11T09:49:58.245Z,21.23
2022-12-11T09:52:58.053Z,23.23
2022-12-11T09:55:29.851Z,15.60
2022-12-11T10:00:37.542Z,9.85
2022-12-11T10:03:19.250Z,9.63
2022-12-11T10:06:02.681Z,15.45
2022-12-11T10:08:31.327Z,15.85
2022-12-11T10:11:40.374Z,14.05
2022-12-11T10:14:45.768Z,16.35
2022-12-11T10:17:15.961Z,12.30
2022-12-11T10:19:43.162Z,20.10
2022-12-11T10:22:30.191Z,11.05
2022-12-11T10:25:16.561Z,9.10
2022-12-11T10:27:44.856Z,19.50
2022-12-11T10:30:24.204Z,13.35
2022-12-11T10:32:52.830Z,12.55
2022-12-11T10:35:24.744Z,15.57
2022-12-11T10:37:55.759Z,12.02
2022-12-11T10:40:24.797Z,13.73
2022-12-11T10:42:55.362Z,17.95
2022-12-11T10:45:22.272Z,22.08
2022-12-11T10:47:49.212Z,20.35
2022-12-11T10:50:24.718Z,14.38
2022-12-11T10:52:53.302Z,16.52
2022-12-11T10:55:31.290Z,14.90
2022-12-11T10:58:01.554Z,16.58
2022-12-11T11:00:35.619Z,16.65
2022-12-11T11:03:03.582Z,15.50
2022-12-11T11:05:36.698Z,14.02
2022-12-11T11:08:25.453Z,13.98
2022-12-11T11:10:56.806Z,12.93
2022-12-11T11:13:26.671Z,14.60
2022-12-11T11:16:21.917Z,16.60
2022-12-11T11:18:56.286Z,15.10
2022-12-11T11:21:26.362Z,13.80
2022-12-11T11:23:54.485Z,16.40
2022-12-11T11:26:38.269Z,12.07
2022-12-11T11:29:25.719Z,15.63
2022-12-11T11:31:52.603Z,12.10
2022-12-11T11:34:22.399Z,8.90
2022-12-11T11:36:58.853Z,12.65
2022-12-11T11:39:25.979Z,11.20
2022-12-11T11:42:02.945Z,22.17
2022-12-11T11:44:37.868Z,12.93
2022-12-11T11:47:19.505Z,10.65
2022-12-11T11:50:08.631Z,11.57
2022-12-11T11:52:46.634Z,10.95
2022-12-11T11:55:26.422Z,15.23
2022-12-11T11:58:02.399Z,9.25
2022-12-11T12:00:33.846Z,11.07
2022-12-11T12:03:02.225Z,17.17
2022-12-11T12:05:44.125Z,18.02
2022-12-11T12:08:26.204Z,19.08
2022-12-11T12:11:19.957Z,15.55
2022-12-11T12:14:29.136Z,12.15
2022-12-11T12:17:23.327Z,13.05
2022-12-11T12:20:08.063Z,11.45
2022-12-11T12:22:34.844Z,13.38
2022-12-11T12:25:39.159Z,13.50
2022-12-11T12:28:52.019Z,12.75
2022-12-11T12:31:27.877Z,16.10
2022-12-11T12:34:31.809Z,17.85
2022-12-11T12:37:45.797Z,13.13
2022-12-11T12:40:21.964Z,16.67
2022-12-11T12:43:16.916Z,16.83
2022-12-11T12:45:59.045Z,18.45
2022-12-11T12:48:27.460Z,20.60
2022-12-11T12:50:56.384Z,18.08
2022-12-11T12:53:27.726Z,21.20
2022-12-11T12:55:55.405Z,17.05
2022-12-11T12:58:45.183Z,11.23
2022-12-11T13:01:22.446Z,11.65
2022-12-11T13:03:56.680Z,23.55
2022-12-11T13:06:40.779Z,13.15
2022-12-11T13:09:18.154Z,19.00
2022-12-11T13:11:50.228Z,17.55
2022-12-11T13:14:17.030Z,15.68
2022-12-11T13:16:46.371Z,17.13
2022-12-11T13:19:20.240Z,18.48
2022-12-11T13:22:02.240Z,15.68
2022-12-11T13:24:32.069Z,20.70
2022-12-11T13:27:10.628Z,19.52
2022-12-11T13:29:42.120Z,19.60
2022-12-11T13:32:18.230Z,20.35
2022-12-11T13:34:55.112Z,19.85
2022-12-11T13:37:31.953Z,19.90
2022-12-11T13:40:00.847Z,20.33
2022-12-11T13:42:35.518Z,21.02
2022-12-11T13:45:04.409Z,17.23
2022-12-11T13:47:32.971Z,20.05
2022-12-11T13:50:20.733Z,17.10
2022-12-11T13:52:58.711Z,22.17
2022-12-11T13:55:28.461Z,20.05
2022-12-11T13:57:55.283Z,14.43
2022-12-11T14:00:32.266Z,20.58
2022-12-11T14:03:03.143Z,24.30
2022-12-11T14:05:30.293Z,30.42
2022-12-11T14:08:01.977Z,23.58
2022-12-11T14:10:31.740Z,15.35
2022-12-11T14:13:02.809Z,19.30
2022-12-11T14:15:32.840Z,22.77
2022-12-11T14:18:00.909Z,17.13
2022-12-11T14:20:34.005Z,23.77
2022-12-11T14:23:08.336Z,16.13
2022-12-11T14:25:35.181Z,19.05
2022-12-11T14:28:02.117Z,20.30
2022-12-11T14:30:31.966Z,25.38
2022-12-11T14:33:02.745Z,16.60
2022-12-11T14:35:38.730Z,15.77
2022-12-11T14:38:16.293Z,17.65
2022-12-11T14:40:47.531Z,23.25
2022-12-11T14:43:42.771Z,22.58
2022-12-11T14:46:17.912Z,31.08
2022-12-11T14:49:01.333Z,41.05
2022-12-11T14:51:34.608Z,28.27
2022-12-11T14:54:04.237Z,21.50
2022-12-11T14:56:31.927Z,17.50
2022-12-11T14:59:03.985Z,23.77
2022-12-11T15:01:36.059Z,17.17
2022-12-11T15:04:16.262Z,21.45
2022-12-11T15:06:47.979Z,25.10
2022-12-11T15:09:17.762Z,80.63
2022-12-11T15:11:45.809Z,68.32
2022-12-11T15:14:14.296Z,78.72
2022-12-11T15:16:42.355Z,14.18
2022-12-11T15:19:20.968Z,14.88
2022-12-11T15:21:48.079Z,18.75
2022-12-11T15:24:43.495Z,14.88
2022-12-11T15:27:37.988Z,14.75
2022-12-11T15:30:21.918Z,15.38
2022-12-11T15:35:26.872Z,12.68
2022-12-11T15:37:55.761Z,12.10
2022-12-11T15:40:23.312Z,10.80
2022-12-11T15:42:51.323Z,9.85
2022-12-11T15:45:21.669Z,12.20
2022-12-11T15:47:49.031Z,19.00
2022-12-11T15:50:25.010Z,11.68
2022-12-11T15:52:53.469Z,11.25
2022-12-11T15:55:21.608Z,11.63
2022-12-11T15:57:53.245Z,18.23
2022-12-11T16:00:21.365Z,16.65
2022-12-11T16:02:48.463Z,12.60
2022-12-11T16:05:15.905Z,15.35
2022-12-11T16:07:43.017Z,10.63
2022-12-11T16:10:15.319Z,14.85
2022-12-11T16:12:43.497Z,10.88
2022-12-11T16:15:21.471Z,11.05
2022-12-11T16:17:50.188Z,15.30
2022-12-11T16:20:17.787Z,11.88
2022-12-11T16:22:44.784Z,10.77
2022-12-11T16:25:11.953Z,14.57
2022-12-11T16:27:39.123Z,11.85
2022-12-11T16:30:06.677Z,9.80
2022-12-11T16:32:33.764Z,13.32
2022-12-11T16:35:01.327Z,12.60
2022-12-11T16:37:28.305Z,11.77
2022-12-11T16:39:55.281Z,15.95
2022-12-11T16:42:22.164Z,12.07
2022-12-11T16:44:49.152Z,15.63
2022-12-11T16:47:16.179Z,9.95
2022-12-11T16:49:43.448Z,9.80
2022-12-11T16:52:10.775Z,12.18
2022-12-11T16:54:37.754Z,11.20
2022-12-11T16:57:04.700Z,13.18
2022-12-11T16:59:36.838Z,13.65
2022-12-11T17:02:04.889Z,11.25
2022-12-11T17:04:31.793Z,10.35
2022-12-11T17:06:58.811Z,17.45
2022-12-11T17:09:25.730Z,13.57
2022-12-11T17:11:53.645Z,13.93
2022-12-11T17:14:20.509Z,13.02
2022-12-11T17:16:48.246Z,11.13
2022-12-11T17:19:15.847Z,13.32
2022-12-11T17:21:45.893Z,13.60
2022-12-11T17:24:18.085Z,12.57
2022-12-11T17:26:44.927Z,14.77
2022-12-11T17:29:12.394Z,11.68
2022-12-11T17:31:39.645Z,10.85
2022-12-11T17:34:06.802Z,12.32
2022-12-11T17:36:33.824Z,15.98
2022-12-11T17:39:00.783Z,16.38
2022-12-11T17:41:27.701Z,14.55
2022-12-11T17:43:55.630Z,13.90
2022-12-11T17:46:22.641Z,25.60
2022-12-11T17:48:49.649Z,15.63
2022-12-11T17:51:22.058Z,22.58
2022-12-11T17:53:49.007Z,14.70
2022-12-11T17:56:16.691Z,14.00
2022-12-11T17:58:43.877Z,13.65
2022-12-11T18:01:13.258Z,14.38
2022-12-11T18:03:41.153Z,15.23
2022-12-11T18:06:11.248Z,18.05
2022-12-11T18:08:38.790Z,21.38
2022-12-11T18:11:11.996Z,27.15
2022-12-11T18:13:39.609Z,37.75
2022-12-11T18:16:10.407Z,34.70
2022-12-11T18:18:37.984Z,26.30
2022-12-11T18:21:05.819Z,23.83
2022-12-11T18:23:32.875Z,26.98
2022-12-11T18:26:00.612Z,26.05
2022-12-11T18:28:27.499Z,24.15
2022-12-11T18:30:54.503Z,24.73
2022-12-11T18:33:21.944Z,44.42
2022-12-11T18:35:50.621Z,42.95
2022-12-11T18:38:17.627Z,49.33
2022-12-11T18:40:45.388Z,44.80
2022-12-11T18:43:12.277Z,49.22
2022-12-11T18:45:41.656Z,44.55
2022-12-11T18:48:09.733Z,33.30
2022-12-11T18:50:36.598Z,31.08
2022-12-11T18:53:04.273Z,24.63
2022-12-11T18:55:32.013Z,12.07
2022-12-11T18:57:58.842Z,8.73
2022-12-11T19:00:25.954Z,10.23
2022-12-11T19:02:52.916Z,6.30
2022-12-11T19:05:19.906Z,4.65
2022-12-11T19:07:46.856Z,6.00
2022-12-11T19:10:14.337Z,4.85
2022-12-11T19:12:42.938Z,3.55
2022-12-11T19:15:10.701Z,5.50
2022-12-11T19:17:38.621Z,2.00
2022-12-11T19:20:25.399Z,3.25
2022-12-11T19:22:56.181Z,3.63
2022-12-11T19:25:23.192Z,3.75
2022-12-11T19:27:50.551Z,5.07
2022-12-11T19:30:17.508Z,3.60
2022-12-11T19:32:45.901Z,2.42
2022-12-11T19:35:15.105Z,3.22
2022-12-11T19:37:42.314Z,2.40
2022-12-11T19:40:09.740Z,3.78
2022-12-11T19:42:36.620Z,5.40
2022-12-11T19:45:03.882Z,3.40
2022-12-11T19:47:30.722Z,2.97
2022-12-11T19:49:57.702Z,1.88
2022-12-11T19:52:24.528Z,2.00
2022-12-11T19:54:51.376Z,1.67
2022-12-11T19:57:18.311Z,1.67
2022-12-11T19:59:45.957Z,2.47
2022-12-11T20:02:15.793Z,2.13
2022-12-11T20:04:42.721Z,1.35
2022-12-11T20:07:09.530Z,2.25
2022-12-11T20:09:36.461Z,1.70
2022-12-11T20:12:06.188Z,5.40
2022-12-11T20:14:33.121Z,3.10
2022-12-11T20:17:16.146Z,1.73
2022-12-11T20:19:43.067Z,3.67
2022-12-11T20:22:10.400Z,2.75
2022-12-11T20:24:37.840Z,3.38
2022-12-11T20:27:04.823Z,3.35
2022-12-11T20:29:32.184Z,3.10
2022-12-11T20:32:01.978Z,1.30
2022-12-11T20:34:28.891Z,2.53
2022-12-11T20:36:56.469Z,2.90
2022-12-11T20:39:24.697Z,1.58
2022-12-11T20:41:51.525Z,0.45
2022-12-11T20:44:20.350Z,0.85
2022-12-11T20:46:47.186Z,0.82
2022-12-11T20:49:14.153Z,0.60
2022-12-11T20:51:41.229Z,1.25
2022-12-11T20:54:08.430Z,0.88
2022-12-11T20:56:35.436Z,3.63
2022-12-11T20:59:02.312Z,2.17
2022-12-11T21:01:32.392Z,0.95
2022-12-11T21:03:59.884Z,0.60
2022-12-11T21:06:31.432Z,3.13
2022-12-11T21:09:07.020Z,1.40
2022-12-11T21:11:34.274Z,0.70
2022-12-11T21:14:01.289Z,0.80
2022-12-11T21:16:28.598Z,0.50
2022-12-11T21:18:57.508Z,1.15
2022-12-11T21:21:24.898Z,1.48
2022-12-11T21:23:51.826Z,3.10
2022-12-11T21:26:19.912Z,0.88
2022-12-11T21:28:46.994Z,1.17
2022-12-11T21:31:16.142Z,0.63
2022-12-11T21:33:43.079Z,2.20
2022-12-11T21:36:12.719Z,1.45
2022-12-11T21:38:40.999Z,0.82
2022-12-11T21:41:19.201Z,2.03
2022-12-11T21:44:56.217Z,0.30
2022-12-11T21:46:34.797Z,0.98
2022-12-11T21:49:01.798Z,0.50
2022-12-11T21:51:37.744Z,0.28
2022-12-11T21:54:07.172Z,0.40
2022-12-11T21:56:34.347Z,0.40
2022-12-11T21:59:01.737Z,1.15
2022-12-11T22:01:32.420Z,0.50
2022-12-11T22:04:00.028Z,0.70
2022-12-11T22:06:28.213Z,0.40
2022-12-11T22:08:55.127Z,0.63
2022-12-11T22:11:26.211Z,2.15
2022-12-11T22:13:53.405Z,0.77
2022-12-11T22:16:20.730Z,0.70
2022-12-11T22:18:48.078Z,1.25
2022-12-11T22:21:15.252Z,1.20
2022-12-11T22:23:43.635Z,1.33
2022-12-11T22:26:16.697Z,1.00
2022-12-11T22:28:43.744Z,1.02
2022-12-11T22:31:12.330Z,3.25
2022-12-11T22:33:39.577Z,2.58
2022-12-11T22:36:07.696Z,2.45
2022-12-11T22:38:35.102Z,3.05
2022-12-11T22:41:09.299Z,1.73
2022-12-11T22:43:36.076Z,2.83
2022-12-11T22:46:03.236Z,3.67
2022-12-11T22:48:30.175Z,4.55
2022-12-11T22:50:57.325Z,2.95
2022-12-11T22:53:24.156Z,2.70
2022-12-11T22:55:51.002Z,2.83
2022-12-11T22:58:21.774Z,2.90
2022-12-11T23:00:48.997Z,2.60
2022-12-11T23:03:16.622Z,1.55
2022-12-11T23:05:43.606Z,0.90
2022-12-11T23:08:10.646Z,0.50
2022-12-11T23:10:41.141Z,0.20
2022-12-11T23:13:08.035Z,1.65
2022-12-11T23:15:34.963Z,0.45
2022-12-11T23:18:01.813Z,0.50
2022-12-11T23:20:28.805Z,0.95
2022-12-11T23:22:55.880Z,1.50
2022-12-11T23:25:22.772Z,1.20
2022-12-11T23:27:49.828Z,1.60
2022-12-11T23:30:16.724Z,1.48
2022-12-11T23:32:43.581Z,2.30
2022-12-11T23:35:10.883Z,2.67
2022-12-11T23:37:37.979Z,2.20
2022-12-11T23:40:05.593Z,2.22
2022-12-11T23:42:33.932Z,2.30
2022-12-11T23:45:00.815Z,1.75
2022-12-11T23:47:27.635Z,3.20
2022-12-11T23:49:54.471Z,1.75
2022-12-11T23:52:22.699Z,1.33
2022-12-11T23:54:51.450Z,1.25
2022-12-11T23:57:18.378Z,0.85
2022-12-11T23:59:45.181Z,1.05
